Time;durP1;ratioP1;P1;durP2;ratioP2;P2;SDS_P1;SDS_P2;PMS_P1;PMS_P2;Temp;Humidity;BMP_temperature;BMP_pressure;BME280_temperature;BME280_humidity;BME280_pressure;Samples;Min_cycle;Max_cycle;Signal;HPM_P1;HPM_P2
2022/10/30 00:01:42;;;;;;;46.33;31.03;;;;;;;;;;4936743;28;20171;-36
2022/10/30 00:04:08;;;;;;;52.67;32.60;;;;;;;;;;4933939;28;20730;-36
2022/10/30 00:06:34;;;;;;;37.90;25.57;;;;;;;;;;4936008;28;20586;-36
2022/10/30 00:09:00;;;;;;;26.80;18.03;;;;;;;;;;4939877;28;20190;-36
2022/10/30 00:11:28;;;;;;;26.73;17.90;;;;;;;;;;4935699;28;20214;-37
2022/10/30 00:13:54;;;;;;;30.00;19.77;;;;;;;;;;4933952;28;20194;-36
2022/10/30 00:16:20;;;;;;;26.43;18.70;;;;;;;;;;4936342;28;20185;-36
2022/10/30 00:18:46;;;;;;;32.27;19.00;;;;;;;;;;4936865;28;20178;-36
2022/10/30 00:21:14;;;;;;;25.73;17.43;;;;;;;;;;4934196;28;20191;-36
2022/10/30 00:23:50;;;;;;;26.23;17.93;;;;;;;;;;4934645;28;20324;-36
2022/10/30 00:26:17;;;;;;;23.13;17.40;;;;;;;;;;4938990;28;20177;-36
2022/10/30 00:28:43;;;;;;;24.93;16.73;;;;;;;;;;4937323;28;20229;-36
2022/10/30 00:31:10;;;;;;;21.90;16.37;;;;;;;;;;4932960;28;20296;-36
2022/10/30 00:33:36;;;;;;;24.27;15.23;;;;;;;;;;4935448;28;20494;-37
2022/10/30 00:36:02;;;;;;;25.37;16.53;;;;;;;;;;4937877;28;20719;-36
2022/10/30 00:38:28;;;;;;;23.73;15.80;;;;;;;;;;4934504;28;20179;-35
2022/10/30 00:40:54;;;;;;;20.67;13.87;;;;;;;;;;4936402;28;20294;-37
2022/10/30 00:43:30;;;;;;;23.20;13.97;;;;;;;;;;4936728;28;20969;-36
2022/10/30 00:45:57;;;;;;;22.50;15.17;;;;;;;;;;4935238;28;20825;-36
2022/10/30 00:48:24;;;;;;;20.80;14.07;;;;;;;;;;4937536;28;20405;-36
2022/10/30 00:50:50;;;;;;;21.80;14.10;;;;;;;;;;4937910;28;20723;-36
2022/10/30 00:53:18;;;;;;;23.20;14.73;;;;;;;;;;4937425;28;20179;-35
2022/10/30 00:55:52;;;;;;;21.07;12.83;;;;;;;;;;4934415;28;20985;-36
2022/10/30 00:58:21;;;;;;;20.87;12.53;;;;;;;;;;4935597;28;20421;-36
2022/10/30 01:00:50;;;;;;;21.97;12.43;;;;;;;;;;4937030;28;20545;-36
2022/10/30 01:03:16;;;;;;;18.83;12.70;;;;;;;;;;4937617;28;20511;-36
2022/10/30 01:05:45;;;;;;;21.37;13.73;;;;;;;;;;4935319;28;20186;-36
2022/10/30 01:08:12;;;;;;;18.77;12.30;;;;;;;;;;4936847;28;20984;-36
2022/10/30 01:10:38;;;;;;;20.63;13.50;;;;;;;;;;4935283;28;20179;-36
2022/10/30 01:13:05;;;;;;;19.27;11.20;;;;;;;;;;4932932;28;20298;-36
2022/10/30 01:15:34;;;;;;;17.30;10.50;;;;;;;;;;4935412;28;20270;-36
2022/10/30 01:18:12;;;;;;;14.80;10.47;;;;;;;;;;4938559;28;20210;-36
2022/10/30 01:20:57;;;;;;;17.63;10.70;;;;;;;;;;4936605;28;20171;-36
2022/10/30 01:23:29;;;;;;;14.73;10.17;;;;;;;;;;4937042;28;21523;-36
2022/10/30 01:25:58;;;;;;;13.60;9.20;;;;;;;;;;4937758;28;20171;-36
2022/10/30 01:28:40;;;;;;;15.50;8.60;;;;;;;;;;4936296;28;20191;-36
2022/10/30 01:31:15;;;;;;;15.57;8.87;;;;;;;;;;4932920;28;20265;-36
2022/10/30 01:34:00;;;;;;;13.50;7.80;;;;;;;;;;4929929;28;20416;-37
2022/10/30 01:36:26;;;;;;;12.50;8.13;;;;;;;;;;4931029;28;20205;-36
2022/10/30 01:38:57;;;;;;;13.60;8.70;;;;;;;;;;4932517;28;20237;-36
2022/10/30 01:41:23;;;;;;;17.27;9.33;;;;;;;;;;4931643;28;20211;-36
2022/10/30 01:43:52;;;;;;;15.23;8.37;;;;;;;;;;4932914;28;20225;-36
2022/10/30 01:46:31;;;;;;;15.87;9.27;;;;;;;;;;4933672;28;20371;-36
2022/10/30 01:49:16;;;;;;;14.77;9.70;;;;;;;;;;4934228;28;20210;-36
2022/10/30 01:51:50;;;;;;;12.50;8.83;;;;;;;;;;4930929;28;20183;-36
2022/10/30 01:54:28;;;;;;;15.60;9.73;;;;;;;;;;4932109;28;20178;-36
2022/10/30 01:57:12;;;;;;;15.03;9.97;;;;;;;;;;4939216;28;20265;-36
2022/10/30 01:59:45;;;;;;;22.20;12.07;;;;;;;;;;4933090;28;20174;-37
2022/10/30 02:02:11;;;;;;;19.17;12.60;;;;;;;;;;4933083;28;20492;-36
2022/10/30 02:04:38;;;;;;;21.33;14.00;;;;;;;;;;4932537;28;20599;-36
2022/10/30 02:07:04;;;;;;;22.40;15.80;;;;;;;;;;4930819;28;20614;-36
2022/10/30 02:09:31;;;;;;;24.53;16.60;;;;;;;;;;4927052;28;20185;-36
2022/10/30 02:11:57;;;;;;;27.17;17.63;;;;;;;;;;4920298;28;20955;-36
2022/10/30 02:14:29;;;;;;;27.00;19.10;;;;;;;;;;4936718;28;20175;-35
2022/10/30 02:16:56;;;;;;;28.80;20.57;;;;;;;;;;4934360;28;20179;-36
2022/10/30 02:19:23;;;;;;;29.33;20.07;;;;;;;;;;4934754;28;21119;-36
2022/10/30 02:21:49;;;;;;;28.50;18.53;;;;;;;;;;4931952;28;20179;-36
2022/10/30 02:24:15;;;;;;;28.47;18.73;;;;;;;;;;4939625;28;20278;-36
2022/10/30 02:26:41;;;;;;;28.80;18.93;;;;;;;;;;4931915;28;20265;-36
2022/10/30 02:29:07;;;;;;;30.63;20.23;;;;;;;;;;4933881;28;20203;-36
2022/10/30 02:31:33;;;;;;;30.40;19.13;;;;;;;;;;4933780;28;20198;-36
2022/10/30 02:33:59;;;;;;;30.47;19.77;;;;;;;;;;4936657;28;20178;-36
2022/10/30 02:36:25;;;;;;;29.10;20.43;;;;;;;;;;4937189;28;20186;-36
2022/10/30 02:38:53;;;;;;;30.03;19.27;;;;;;;;;;4932688;28;20230;-36
2022/10/30 02:41:20;;;;;;;30.97;20.30;;;;;;;;;;4937745;28;21036;-36
2022/10/30 02:43:46;;;;;;;32.43;21.07;;;;;;;;;;4933610;28;20289;-36
2022/10/30 02:46:12;;;;;;;34.40;22.63;;;;;;;;;;4934122;28;20217;-36
2022/10/30 02:48:38;;;;;;;31.17;21.13;;;;;;;;;;4934430;28;20182;-35
2022/10/30 02:51:04;;;;;;;29.10;21.00;;;;;;;;;;4939550;28;20174;-36
2022/10/30 02:53:30;;;;;;;31.20;19.00;;;;;;;;;;4931183;28;20619;-36
2022/10/30 02:56:02;;;;;;;29.97;19.77;;;;;;;;;;4926652;28;20218;-36
2022/10/30 02:58:28;;;;;;;31.00;19.30;;;;;;;;;;4933200;28;20179;-36
2022/10/30 03:00:54;;;;;;;31.60;21.27;;;;;;;;;;4937660;28;20962;-35
2022/10/30 03:03:20;;;;;;;30.87;19.57;;;;;;;;;;4938270;28;20242;-36
2022/10/30 03:05:46;;;;;;;28.30;17.77;;;;;;;;;;4939136;28;20175;-36
2022/10/30 03:08:12;;;;;;;30.47;20.03;;;;;;;;;;4936679;28;21090;-36
2022/10/30 03:10:38;;;;;;;26.47;18.30;;;;;;;;;;4937409;28;20972;-36
2022/10/30 03:13:05;;;;;;;25.70;17.03;;;;;;;;;;4935981;28;20876;-36
2022/10/30 03:15:31;;;;;;;21.23;14.03;;;;;;;;;;4934758;28;20463;-36
2022/10/30 03:17:57;;;;;;;22.03;14.73;;;;;;;;;;4939225;28;20179;-36
2022/10/30 03:20:23;;;;;;;20.93;14.10;;;;;;;;;;4932982;28;20182;-37
2022/10/30 03:22:49;;;;;;;22.83;13.37;;;;;;;;;;4933945;28;20198;-36
2022/10/30 03:25:15;;;;;;;18.43;11.13;;;;;;;;;;4931999;28;21041;-37
2022/10/30 03:27:41;;;;;;;16.77;11.90;;;;;;;;;;4930080;28;20170;-35
2022/10/30 03:30:07;;;;;;;15.53;10.10;;;;;;;;;;4932112;28;20198;-36
2022/10/30 03:32:33;;;;;;;16.33;9.30;;;;;;;;;;4940505;28;20171;-36
2022/10/30 03:34:59;;;;;;;14.77;8.83;;;;;;;;;;4939218;28;20178;-36
2022/10/30 03:37:25;;;;;;;15.30;8.33;;;;;;;;;;4937184;28;20190;-36
2022/10/30 03:39:51;;;;;;;14.83;8.07;;;;;;;;;;4932526;28;20198;-36
2022/10/30 03:42:17;;;;;;;13.60;8.43;;;;;;;;;;4932395;28;20271;-35
2022/10/30 03:44:44;;;;;;;15.63;9.10;;;;;;;;;;4933437;28;20225;-36
2022/10/30 03:47:10;;;;;;;13.83;8.90;;;;;;;;;;4934266;28;20389;-36
2022/10/30 03:49:36;;;;;;;14.47;8.77;;;;;;;;;;4932417;28;20274;-36
2022/10/30 03:52:02;;;;;;;13.90;8.70;;;;;;;;;;4933724;28;20745;-36
2022/10/30 03:54:28;;;;;;;14.57;9.43;;;;;;;;;;4934560;28;20213;-36
2022/10/30 03:56:54;;;;;;;14.87;9.30;;;;;;;;;;4934793;28;20413;-36
2022/10/30 03:59:20;;;;;;;14.67;8.50;;;;;;;;;;4936076;28;20192;-36
2022/10/30 04:01:46;;;;;;;13.53;8.53;;;;;;;;;;4935490;28;20505;-36
2022/10/30 04:04:12;;;;;;;14.87;8.03;;;;;;;;;;4936951;28;20207;-36
2022/10/30 04:06:38;;;;;;;15.97;7.93;;;;;;;;;;4936247;28;20285;-36
2022/10/30 04:09:04;;;;;;;9.57;7.03;;;;;;;;;;4934585;28;20202;-36
2022/10/30 04:11:30;;;;;;;11.33;7.43;;;;;;;;;;4937766;28;20178;-36
2022/10/30 04:13:56;;;;;;;15.77;7.63;;;;;;;;;;4934710;28;21671;-36
2022/10/30 04:16:22;;;;;;;12.20;7.00;;;;;;;;;;4936638;28;20468;-36
2022/10/30 04:18:49;;;;;;;12.77;7.10;;;;;;;;;;4932164;28;20197;-36
2022/10/30 04:21:15;;;;;;;16.47;6.87;;;;;;;;;;4935514;28;20210;-36
2022/10/30 04:23:41;;;;;;;13.33;6.47;;;;;;;;;;4935931;28;20876;-35
2022/10/30 04:26:07;;;;;;;11.37;6.23;;;;;;;;;;4927248;28;20190;-35
2022/10/30 04:28:33;;;;;;;10.07;6.00;;;;;;;;;;4933291;28;20186;-36
2022/10/30 04:30:59;;;;;;;11.47;6.20;;;;;;;;;;4934206;28;20750;-36
2022/10/30 04:33:25;;;;;;;11.73;6.43;;;;;;;;;;4933865;28;20475;-36
2022/10/30 04:35:51;;;;;;;11.87;5.63;;;;;;;;;;4930444;28;20192;-36
2022/10/30 04:38:21;;;;;;;10.43;5.80;;;;;;;;;;4941336;28;20531;-35
2022/10/30 04:40:47;;;;;;;7.80;5.17;;;;;;;;;;4939608;28;20210;-35
2022/10/30 04:43:13;;;;;;;9.90;5.63;;;;;;;;;;4941610;28;20675;-35
2022/10/30 04:45:40;;;;;;;11.87;5.57;;;;;;;;;;4937146;28;20167;-36
2022/10/30 04:48:12;;;;;;;10.77;5.47;;;;;;;;;;4937321;28;20193;-36
2022/10/30 04:50:38;;;;;;;9.17;5.77;;;;;;;;;;4937106;28;20171;-36
2022/10/30 04:53:08;;;;;;;9.67;5.20;;;;;;;;;;4943015;28;20187;-36
2022/10/30 04:55:34;;;;;;;12.03;6.33;;;;;;;;;;4940446;28;20495;-36
2022/10/30 04:58:03;;;;;;;9.77;5.60;;;;;;;;;;4938959;28;20599;-36
2022/10/30 05:00:30;;;;;;;9.70;7.23;;;;;;;;;;4936090;28;20171;-35
2022/10/30 05:02:59;;;;;;;14.23;7.90;;;;;;;;;;4936459;28;21246;-36
2022/10/30 05:05:26;;;;;;;13.63;9.33;;;;;;;;;;4928934;28;20183;-35
2022/10/30 05:07:52;;;;;;;13.47;8.20;;;;;;;;;;4937206;28;20718;-35
2022/10/30 05:10:18;;;;;;;14.70;10.10;;;;;;;;;;4937085;28;20646;-35
2022/10/30 05:12:45;;;;;;;15.47;11.43;;;;;;;;;;4934161;28;20182;-36
2022/10/30 05:15:11;;;;;;;16.90;11.60;;;;;;;;;;4932528;28;20735;-36
2022/10/30 05:17:38;;;;;;;19.77;12.73;;;;;;;;;;4935641;28;20186;-36
2022/10/30 05:20:04;;;;;;;20.87;12.67;;;;;;;;;;4941745;28;20175;-35
2022/10/30 05:22:30;;;;;;;19.83;14.17;;;;;;;;;;4935226;28;20382;-36
2022/10/30 05:24:56;;;;;;;21.40;13.67;;;;;;;;;;4930411;28;20180;-36
2022/10/30 05:27:22;;;;;;;21.00;13.90;;;;;;;;;;4950497;28;20273;-35
2022/10/30 05:29:48;;;;;;;23.33;15.17;;;;;;;;;;4937568;28;20232;-36
2022/10/30 05:32:14;;;;;;;23.77;14.10;;;;;;;;;;4931223;28;20175;-36
2022/10/30 05:34:41;;;;;;;25.93;16.20;;;;;;;;;;4931254;28;20174;-36
2022/10/30 05:37:07;;;;;;;23.43;14.27;;;;;;;;;;4936182;28;20521;-36
2022/10/30 05:39:33;;;;;;;24.37;14.97;;;;;;;;;;4933309;28;20178;-35
2022/10/30 05:41:59;;;;;;;26.10;17.10;;;;;;;;;;4928830;28;20298;-36
2022/10/30 05:44:25;;;;;;;21.00;14.43;;;;;;;;;;4933417;28;20516;-36
2022/10/30 05:46:51;;;;;;;30.40;17.10;;;;;;;;;;4931312;28;20376;-36
2022/10/30 05:49:17;;;;;;;28.10;17.37;;;;;;;;;;4934335;28;20178;-36
2022/10/30 05:51:43;;;;;;;24.37;15.57;;;;;;;;;;4935681;28;20175;-36
2022/10/30 05:54:09;;;;;;;28.70;17.43;;;;;;;;;;4930618;28;20361;-36
2022/10/30 05:56:35;;;;;;;29.33;18.37;;;;;;;;;;4930643;28;20939;-36
2022/10/30 05:59:01;;;;;;;27.33;16.63;;;;;;;;;;4933444;28;20374;-35
2022/10/30 06:01:27;;;;;;;35.07;17.87;;;;;;;;;;4934605;28;20826;-35
2022/10/30 06:03:53;;;;;;;26.57;16.57;;;;;;;;;;4931199;28;20646;-36
2022/10/30 06:06:20;;;;;;;27.63;17.33;;;;;;;;;;4930862;28;20415;-36
2022/10/30 06:08:46;;;;;;;28.77;18.27;;;;;;;;;;4933252;28;20754;-35
2022/10/30 06:11:12;;;;;;;25.33;16.47;;;;;;;;;;4936037;28;20199;-36
2022/10/30 06:13:39;;;;;;;25.23;16.20;;;;;;;;;;4933453;28;20182;-36
2022/10/30 06:16:05;;;;;;;26.60;17.63;;;;;;;;;;4926404;28;20186;-35
2022/10/30 06:18:31;;;;;;;26.50;17.50;;;;;;;;;;4931583;28;20706;-36
2022/10/30 06:20:58;;;;;;;27.47;17.30;;;;;;;;;;4934218;28;20608;-36
2022/10/30 06:23:24;;;;;;;24.80;16.27;;;;;;;;;;4934706;28;20836;-36
2022/10/30 06:25:50;;;;;;;24.97;16.50;;;;;;;;;;4928232;28;20393;-36
2022/10/30 06:28:16;;;;;;;28.63;16.37;;;;;;;;;;4896317;28;1151669;-36
2022/10/30 06:30:42;;;;;;;23.67;15.10;;;;;;;;;;4929768;28;20211;-35
2022/10/30 06:33:09;;;;;;;23.10;13.90;;;;;;;;;;4934403;28;20706;-35
2022/10/30 06:35:35;;;;;;;17.40;10.50;;;;;;;;;;4934176;28;20710;-36
2022/10/30 06:38:03;;;;;;;18.63;9.47;;;;;;;;;;4937072;28;20190;-35
2022/10/30 06:40:30;;;;;;;16.40;9.00;;;;;;;;;;4929205;28;20589;-35
2022/10/30 06:42:56;;;;;;;12.50;8.37;;;;;;;;;;4923749;28;20608;-36
2022/10/30 06:45:23;;;;;;;15.87;8.20;;;;;;;;;;4933830;28;20179;-35
2022/10/30 06:47:49;;;;;;;15.37;8.17;;;;;;;;;;4930634;28;20183;-36
2022/10/30 06:50:17;;;;;;;11.13;6.90;;;;;;;;;;4926915;28;20651;-36
2022/10/30 06:52:43;;;;;;;10.33;7.20;;;;;;;;;;4932385;28;20273;-35
2022/10/30 06:55:09;;;;;;;13.93;6.83;;;;;;;;;;4928556;28;20714;-35
2022/10/30 06:57:36;;;;;;;11.43;6.63;;;;;;;;;;4931164;28;20252;-36
2022/10/30 07:00:02;;;;;;;12.63;6.73;;;;;;;;;;4922717;28;20183;-36
2022/10/30 07:02:28;;;;;;;10.80;6.50;;;;;;;;;;4926957;28;20217;-36
2022/10/30 07:04:54;;;;;;;11.23;6.33;;;;;;;;;;4931704;28;20178;-36
2022/10/30 07:07:20;;;;;;;12.53;6.30;;;;;;;;;;4932272;28;20171;-36
2022/10/30 07:09:46;;;;;;;11.60;5.53;;;;;;;;;;4927213;28;20183;-36
2022/10/30 07:12:12;;;;;;;11.87;5.77;;;;;;;;;;4928112;28;20198;-36
2022/10/30 07:14:38;;;;;;;13.33;5.97;;;;;;;;;;4928042;28;20183;-36
2022/10/30 07:17:05;;;;;;;12.10;5.73;;;;;;;;;;4924673;28;20465;-36
2022/10/30 07:19:31;;;;;;;9.37;5.77;;;;;;;;;;4929784;28;20642;-36
2022/10/30 07:21:57;;;;;;;16.40;6.00;;;;;;;;;;4927853;28;20179;-37
2022/10/30 07:24:23;;;;;;;12.33;5.90;;;;;;;;;;4927301;28;20211;-36
2022/10/30 07:26:49;;;;;;;13.33;5.57;;;;;;;;;;4932642;28;20483;-36
2022/10/30 07:29:15;;;;;;;12.73;5.73;;;;;;;;;;4930254;28;20198;-36
2022/10/30 07:31:42;;;;;;;12.50;6.27;;;;;;;;;;4925991;28;20655;-36
2022/10/30 07:34:08;;;;;;;11.57;6.37;;;;;;;;;;4928572;28;21067;-36
2022/10/30 07:36:34;;;;;;;14.83;6.97;;;;;;;;;;4923327;28;20230;-36
2022/10/30 07:39:00;;;;;;;15.90;6.20;;;;;;;;;;4926341;28;20196;-36
2022/10/30 07:41:26;;;;;;;11.70;6.57;;;;;;;;;;4928143;28;20237;-36
2022/10/30 07:43:52;;;;;;;13.53;6.03;;;;;;;;;;4920768;28;20679;-37
2022/10/30 07:46:18;;;;;;;13.67;6.67;;;;;;;;;;4917673;28;20508;-37
2022/10/30 07:48:44;;;;;;;10.57;5.93;;;;;;;;;;4930166;28;20233;-37
2022/10/30 07:51:10;;;;;;;11.10;5.73;;;;;;;;;;4913281;28;20190;-37
2022/10/30 07:53:36;;;;;;;10.97;5.90;;;;;;;;;;4924477;28;20658;-37
2022/10/30 07:56:03;;;;;;;11.57;5.60;;;;;;;;;;4926366;28;20179;-36
2022/10/30 07:58:29;;;;;;;9.67;5.67;;;;;;;;;;4920971;28;21683;-37
2022/10/30 08:00:55;;;;;;;11.20;5.53;;;;;;;;;;4920400;28;21680;-37
2022/10/30 08:03:21;;;;;;;12.27;5.47;;;;;;;;;;4923369;28;20874;-36
2022/10/30 08:05:47;;;;;;;9.83;5.33;;;;;;;;;;4915444;28;20187;-37
2022/10/30 08:08:13;;;;;;;9.33;5.13;;;;;;;;;;4916794;28;20183;-36
2022/10/30 08:10:39;;;;;;;11.00;5.40;;;;;;;;;;4926891;28;20175;-37
2022/10/30 08:13:05;;;;;;;8.43;4.73;;;;;;;;;;4912250;28;20191;-37
2022/10/30 08:15:31;;;;;;;9.90;4.33;;;;;;;;;;4912661;28;20179;-37
2022/10/30 08:17:57;;;;;;;9.43;4.87;;;;;;;;;;4911644;28;20179;-36
2022/10/30 08:20:24;;;;;;;9.07;4.80;;;;;;;;;;4911220;28;20258;-36
2022/10/30 08:22:51;;;;;;;8.63;4.63;;;;;;;;;;4918416;28;20206;-37
2022/10/30 08:25:18;;;;;;;10.40;4.40;;;;;;;;;;4921790;28;20283;-36
2022/10/30 08:27:54;;;;;;;9.20;4.80;;;;;;;;;;4911475;28;20180;-37
2022/10/30 08:30:21;;;;;;;10.50;5.20;;;;;;;;;;4921391;28;20649;-36
2022/10/30 08:32:47;;;;;;;9.70;4.90;;;;;;;;;;4940675;28;20179;-37
2022/10/30 08:35:13;;;;;;;8.97;5.53;;;;;;;;;;4922519;28;20179;-36
2022/10/30 08:37:39;;;;;;;14.33;6.97;;;;;;;;;;4925121;28;20664;-36
2022/10/30 08:40:06;;;;;;;11.93;6.47;;;;;;;;;;4925876;28;20269;-37
2022/10/30 08:42:32;;;;;;;13.50;7.30;;;;;;;;;;4929681;28;20194;-37
2022/10/30 08:44:58;;;;;;;15.07;7.83;;;;;;;;;;4926577;28;20729;-36
2022/10/30 08:47:24;;;;;;;18.87;9.13;;;;;;;;;;4924303;28;20183;-37
2022/10/30 08:49:50;;;;;;;18.37;9.53;;;;;;;;;;4926950;28;20350;-36
2022/10/30 08:52:16;;;;;;;20.60;9.73;;;;;;;;;;4921525;28;20179;-37
2022/10/30 08:54:42;;;;;;;15.30;9.43;;;;;;;;;;4916052;28;20185;-37
2022/10/30 08:57:08;;;;;;;20.77;11.00;;;;;;;;;;4916267;28;20188;-37
2022/10/30 08:59:34;;;;;;;19.77;12.20;;;;;;;;;;4915694;28;20759;-37
2022/10/30 09:02:00;;;;;;;20.73;12.00;;;;;;;;;;4919552;28;20201;-37
2022/10/30 09:04:26;;;;;;;22.03;12.70;;;;;;;;;;4913928;28;20203;-37
2022/10/30 09:06:52;;;;;;;31.37;15.33;;;;;;;;;;4923357;28;20377;-37
2022/10/30 09:09:18;;;;;;;22.37;13.57;;;;;;;;;;4915881;28;20187;-37
2022/10/30 09:11:47;;;;;;;29.33;15.80;;;;;;;;;;4920438;28;21591;-36
2022/10/30 09:14:13;;;;;;;25.97;16.10;;;;;;;;;;4911982;28;20189;-37
2022/10/30 09:16:40;;;;;;;25.93;15.03;;;;;;;;;;4916027;28;20187;-38
2022/10/30 09:19:06;;;;;;;27.60;17.20;;;;;;;;;;4930011;28;20226;-36
2022/10/30 09:21:32;;;;;;;29.67;17.63;;;;;;;;;;4930285;28;20194;-37
2022/10/30 09:23:58;;;;;;;30.93;18.43;;;;;;;;;;4930641;28;20209;-36
2022/10/30 09:26:24;;;;;;;29.40;17.10;;;;;;;;;;4935147;28;20189;-37
2022/10/30 09:28:50;;;;;;;32.77;18.93;;;;;;;;;;4934291;28;20811;-37
2022/10/30 09:31:16;;;;;;;33.10;18.13;;;;;;;;;;4924636;28;20187;-37
2022/10/30 09:33:42;;;;;;;30.93;18.60;;;;;;;;;;4920003;28;20187;-37
2022/10/30 09:36:08;;;;;;;30.07;18.80;;;;;;;;;;4916440;28;21194;-37
2022/10/30 09:38:34;;;;;;;34.93;19.80;;;;;;;;;;4917924;28;20426;-36
2022/10/30 09:41:00;;;;;;;30.37;18.50;;;;;;;;;;4917564;28;20656;-37
2022/10/30 09:43:29;;;;;;;35.17;19.73;;;;;;;;;;4922581;28;20638;-37
2022/10/30 09:46:00;;;;;;;32.47;20.00;;;;;;;;;;4920967;28;20257;-37
2022/10/30 09:48:45;;;;;;;33.40;19.93;;;;;;;;;;4921522;28;20258;-37
2022/10/30 09:51:23;;;;;;;34.23;19.57;;;;;;;;;;4925173;28;20175;-37
2022/10/30 09:53:58;;;;;;;32.83;18.33;;;;;;;;;;4903064;28;20178;-36
2022/10/30 09:56:31;;;;;;;30.73;18.63;;;;;;;;;;4928007;28;20308;-37
2022/10/30 09:59:07;;;;;;;33.03;19.27;;;;;;;;;;4924187;28;21218;-37
2022/10/30 10:01:48;;;;;;;27.20;17.73;;;;;;;;;;4927708;28;20194;-37
2022/10/30 10:04:26;;;;;;;35.53;19.93;;;;;;;;;;4919264;28;20198;-37
2022/10/30 10:06:55;;;;;;;33.47;20.67;;;;;;;;;;4926133;28;20278;-37
2022/10/30 10:09:23;;;;;;;33.27;20.23;;;;;;;;;;4924346;28;20577;-35
2022/10/30 10:12:02;;;;;;;33.40;20.73;;;;;;;;;;4921601;28;20178;-37
2022/10/30 10:14:30;;;;;;;36.13;20.90;;;;;;;;;;4926654;28;20175;-37
2022/10/30 10:16:57;;;;;;;35.13;20.50;;;;;;;;;;4924665;28;20191;-36
2022/10/30 10:19:35;;;;;;;36.00;22.23;;;;;;;;;;4922642;28;21531;-36
2022/10/30 10:22:02;;;;;;;35.27;20.27;;;;;;;;;;4925762;28;20924;-36
2022/10/30 10:24:38;;;;;;;35.13;20.93;;;;;;;;;;4926160;28;20199;-37
2022/10/30 10:27:07;;;;;;;31.87;20.17;;;;;;;;;;4927875;28;20212;-36
2022/10/30 10:29:51;;;;;;;36.47;22.37;;;;;;;;;;4922695;28;20238;-37
2022/10/30 10:32:36;;;;;;;34.80;21.57;;;;;;;;;;4939821;28;20185;-36
2022/10/30 10:35:18;;;;;;;34.93;21.87;;;;;;;;;;4936449;28;20189;-36
2022/10/30 10:37:49;;;;;;;38.83;23.00;;;;;;;;;;4927180;28;20704;-36
2022/10/30 10:40:33;;;;;;;72.13;24.53;;;;;;;;;;4938117;28;20182;-37
2022/10/30 10:42:59;;;;;;;36.70;21.40;;;;;;;;;;4942905;28;20210;-37
2022/10/30 10:45:25;;;;;;;36.40;22.17;;;;;;;;;;4942907;28;21101;-37
2022/10/30 10:48:00;;;;;;;42.70;21.57;;;;;;;;;;4943348;28;20174;-37
2022/10/30 10:50:46;;;;;;;32.40;21.30;;;;;;;;;;4942470;28;21534;-36
2022/10/30 10:53:21;;;;;;;33.10;20.53;;;;;;;;;;4942923;28;20179;-37
2022/10/30 10:55:49;;;;;;;34.97;21.30;;;;;;;;;;4941332;28;20182;-37
2022/10/30 10:58:25;;;;;;;38.47;21.73;;;;;;;;;;4948291;28;20249;-36
2022/10/30 11:00:52;;;;;;;38.63;23.40;;;;;;;;;;4939949;28;20175;-37
2022/10/30 11:03:21;;;;;;;34.40;21.33;;;;;;;;;;4943009;28;20233;-37
2022/10/30 11:06:11;;;;;;;39.03;27.03;;;;;;;;;;4943144;28;20226;-37
2022/10/30 11:08:37;;;;;;;42.00;22.47;;;;;;;;;;4935682;28;21186;-37
2022/10/30 11:11:04;;;;;;;38.07;21.60;;;;;;;;;;4942283;28;20194;-37
2022/10/30 11:13:31;;;;;;;41.93;22.27;;;;;;;;;;4955212;28;20822;-37
2022/10/30 11:16:03;;;;;;;36.63;20.93;;;;;;;;;;4933074;28;21016;-37
2022/10/30 11:18:29;;;;;;;37.33;21.77;;;;;;;;;;4935339;28;20195;-37
2022/10/30 11:20:57;;;;;;;34.80;22.10;;;;;;;;;;4943970;28;20178;-37
2022/10/30 11:23:52;;;;;;;39.30;22.33;;;;;;;;;;4939152;28;20218;-37
2022/10/30 11:26:21;;;;;;;36.20;22.03;;;;;;;;;;4936825;28;20194;-36
2022/10/30 11:28:50;;;;;;;36.37;21.70;;;;;;;;;;4942857;28;20202;-37
2022/10/30 11:31:39;;;;;;;37.13;22.17;;;;;;;;;;4938654;28;20750;-37
2022/10/30 11:34:17;;;;;;;116.77;104.27;;;;;;;;;;4938493;28;20182;-37
2022/10/30 11:36:44;;;;;;;34.80;21.27;;;;;;;;;;4937719;28;20209;-37
2022/10/30 11:39:31;;;;;;;41.83;25.07;;;;;;;;;;4942747;28;20167;-37
2022/10/30 11:42:02;;;;;;;75.43;56.60;;;;;;;;;;4938713;28;20561;-37
2022/10/30 11:44:33;;;;;;;31.97;20.47;;;;;;;;;;4939429;28;20202;-37
2022/10/30 11:46:59;;;;;;;35.93;20.93;;;;;;;;;;4936890;28;20187;-37
2022/10/30 11:49:28;;;;;;;33.13;20.07;;;;;;;;;;4938734;28;20182;-37
2022/10/30 11:51:54;;;;;;;71.27;48.97;;;;;;;;;;4938758;28;20193;-37
2022/10/30 11:54:21;;;;;;;47.83;31.67;;;;;;;;;;4940755;28;20293;-36
2022/10/30 11:56:50;;;;;;;37.43;20.93;;;;;;;;;;4936150;28;20206;-37
2022/10/30 11:59:21;;;;;;;37.93;21.53;;;;;;;;;;4938644;28;20245;-37
2022/10/30 12:01:59;;;;;;;35.40;19.60;;;;;;;;;;4941551;28;20167;-37
2022/10/30 12:04:27;;;;;;;32.50;19.43;;;;;;;;;;4938780;28;21084;-37
2022/10/30 12:07:12;;;;;;;35.53;20.97;;;;;;;;;;4940042;28;20175;-38
2022/10/30 12:09:42;;;;;;;108.47;47.00;;;;;;;;;;4943620;28;20301;-36
2022/10/30 12:12:12;;;;;;;36.57;21.53;;;;;;;;;;4941201;28;20187;-37
2022/10/30 12:14:38;;;;;;;33.60;20.43;;;;;;;;;;4941792;28;20947;-36
2022/10/30 12:17:04;;;;;;;27.40;18.33;;;;;;;;;;4937261;28;20234;-37
2022/10/30 12:19:31;;;;;;;33.07;18.20;;;;;;;;;;4939980;28;20188;-37
2022/10/30 12:22:00;;;;;;;32.07;18.23;;;;;;;;;;4939933;28;20210;-37
2022/10/30 12:24:26;;;;;;;26.13;17.73;;;;;;;;;;4938720;28;20219;-37
2022/10/30 12:26:54;;;;;;;27.43;17.53;;;;;;;;;;4955796;28;20179;-37
2022/10/30 12:29:23;;;;;;;31.90;18.70;;;;;;;;;;4943495;28;20205;-37
2022/10/30 12:31:58;;;;;;;32.53;18.80;;;;;;;;;;4941166;28;20188;-36
2022/10/30 12:34:24;;;;;;;29.93;17.40;;;;;;;;;;4934932;28;21240;-37
2022/10/30 12:36:53;;;;;;;27.67;16.00;;;;;;;;;;4936737;28;20178;-37
2022/10/30 12:39:27;;;;;;;25.43;16.40;;;;;;;;;;4943749;28;20982;-37
2022/10/30 12:42:01;;;;;;;29.37;16.80;;;;;;;;;;4941812;28;20271;-37
2022/10/30 12:44:54;;;;;;;26.37;16.57;;;;;;;;;;4937460;28;20200;-39
2022/10/30 12:47:29;;;;;;;29.80;16.97;;;;;;;;;;4936634;28;21056;-36
2022/10/30 12:50:02;;;;;;;24.70;15.90;;;;;;;;;;4937654;28;20889;-37
2022/10/30 12:52:33;;;;;;;29.77;16.47;;;;;;;;;;4938960;28;20179;-36
2022/10/30 12:55:00;;;;;;;26.50;13.97;;;;;;;;;;4954687;28;20190;-37
2022/10/30 12:57:26;;;;;;;24.57;13.80;;;;;;;;;;4941884;28;20187;-38
2022/10/30 13:00:13;;;;;;;22.23;13.23;;;;;;;;;;4941426;28;21786;-37
2022/10/30 13:02:42;;;;;;;20.57;13.63;;;;;;;;;;4934696;28;20182;-38
2022/10/30 13:05:24;;;;;;;19.90;12.37;;;;;;;;;;4942724;28;21093;-37
2022/10/30 13:08:03;;;;;;;19.97;10.90;;;;;;;;;;4945160;28;20285;-38
2022/10/30 13:10:55;;;;;;;28.30;13.30;;;;;;;;;;4935480;28;20217;-38
2022/10/30 13:13:23;;;;;;;25.60;13.30;;;;;;;;;;4936848;28;20278;-38
2022/10/30 13:16:00;;;;;;;18.53;10.93;;;;;;;;;;4937236;28;20195;-38
2022/10/30 13:18:26;;;;;;;23.40;11.47;;;;;;;;;;4938159;28;20256;-37
2022/10/30 13:21:00;;;;;;;23.60;13.40;;;;;;;;;;4937267;28;20735;-38
2022/10/30 13:23:29;;;;;;;24.90;13.40;;;;;;;;;;4934531;28;20658;-37
2022/10/30 13:26:24;;;;;;;17.93;11.63;;;;;;;;;;4938935;28;20169;-38
2022/10/30 13:29:05;;;;;;;19.07;9.20;;;;;;;;;;4916176;28;20753;-38
2022/10/30 13:31:39;;;;;;;17.70;9.77;;;;;;;;;;4939087;28;20181;-38
2022/10/30 13:34:05;;;;;;;17.87;9.77;;;;;;;;;;4941012;28;20199;-37
2022/10/30 13:36:41;;;;;;;14.40;9.37;;;;;;;;;;4940984;28;20183;-38
2022/10/30 13:39:07;;;;;;;18.53;8.97;;;;;;;;;;4935909;28;20221;-36
2022/10/30 13:41:53;;;;;;;16.23;7.47;;;;;;;;;;4950032;28;20265;-36
2022/10/30 13:44:19;;;;;;;12.70;7.20;;;;;;;;;;4935165;28;20276;-35
2022/10/30 13:47:04;;;;;;;14.73;6.80;;;;;;;;;;4937033;28;20208;-36
2022/10/30 13:49:49;;;;;;;9.07;5.23;;;;;;;;;;4937714;28;20175;-36
2022/10/30 13:52:16;;;;;;;12.03;6.40;;;;;;;;;;4934900;28;20950;-36
2022/10/30 13:54:45;;;;;;;14.67;6.73;;;;;;;;;;4937392;28;20289;-36
2022/10/30 13:57:19;;;;;;;12.87;6.83;;;;;;;;;;4934476;28;20187;-36
2022/10/30 14:00:04;;;;;;;18.07;8.60;;;;;;;;;;4931566;28;20499;-36
2022/10/30 14:02:32;;;;;;;14.33;8.43;;;;;;;;;;4940016;28;20438;-35
2022/10/30 14:05:07;;;;;;;11.77;7.40;;;;;;;;;;4933460;28;20292;-36
2022/10/30 14:07:40;;;;;;;15.00;7.67;;;;;;;;;;4936258;28;20257;-35
2022/10/30 14:10:10;;;;;;;15.20;6.90;;;;;;;;;;4939997;28;20179;-36
2022/10/30 14:12:52;;;;;;;20.47;8.17;;;;;;;;;;4936924;28;20175;-38
2022/10/30 14:15:47;;;;;;;13.87;6.87;;;;;;;;;;4932163;28;20201;-37
2022/10/30 14:18:14;;;;;;;11.63;6.03;;;;;;;;;;4933938;28;20303;-38
2022/10/30 14:20:41;;;;;;;10.93;5.97;;;;;;;;;;4936368;28;20730;-35
2022/10/30 14:23:21;;;;;;;12.33;5.20;;;;;;;;;;4939901;28;20206;-35
2022/10/30 14:26:02;;;;;;;7.23;4.80;;;;;;;;;;4937622;28;20318;-35
2022/10/30 14:28:48;;;;;;;11.77;5.03;;;;;;;;;;4936980;28;20674;-35
2022/10/30 14:31:16;;;;;;;13.70;5.60;;;;;;;;;;4941534;28;20605;-35
2022/10/30 14:33:46;;;;;;;14.83;6.10;;;;;;;;;;4938624;28;20786;-35
2022/10/30 14:36:17;;;;;;;13.33;6.03;;;;;;;;;;4935805;28;20185;-35